Time;durP1;ratioP1;P1;durP2;ratioP2;P2;SDS_P1;SDS_P2;PMS_P1;PMS_P2;Temp;Humidity;BMP_temperature;BMP_pressure;BME280_temperature;BME280_humidity;BME280_pressure;Samples;Min_cycle;Max_cycle;Signal;HPM_P1;HPM_P2
2024/04/10 00:00:47;;;;;;;2.28;0.85;;;;;;;;;;5433859;26;20003;-57
2024/04/10 00:03:16;;;;;;;5.15;0.90;;;;;;;;;;5422321;26;19996;-57
2024/04/10 00:05:42;;;;;;;4.75;1.38;;;;;;;;;;5448868;26;20014;-57
2024/04/10 00:08:08;;;;;;;2.03;0.77;;;;;;;;;;5451275;26;20520;-57
2024/04/10 00:10:34;;;;;;;4.05;0.98;;;;;;;;;;5443010;26;20015;-58
2024/04/10 00:13:01;;;;;;;4.82;1.08;;;;;;;;;;5418714;26;20363;-58
2024/04/10 00:15:27;;;;;;;10.13;1.00;;;;;;;;;;5440484;26;20043;-58
2024/04/10 00:17:53;;;;;;;1.75;0.88;;;;;;;;;;5439713;26;20435;-58
2024/04/10 00:20:19;;;;;;;7.93;1.15;;;;;;;;;;5444522;26;20014;-58
2024/04/10 00:22:45;;;;;;;4.78;0.88;;;;;;;;;;5449243;26;20012;-58
2024/04/10 00:25:11;;;;;;;4.25;1.20;;;;;;;;;;5420514;26;20003;-58
2024/04/10 00:27:37;;;;;;;2.03;0.70;;;;;;;;;;5450255;26;19995;-58
2024/04/10 00:30:03;;;;;;;1.83;0.60;;;;;;;;;;5437462;26;20320;-57
2024/04/10 00:32:29;;;;;;;4.85;0.82;;;;;;;;;;5444670;26;19995;-57
2024/04/10 00:34:55;;;;;;;3.13;0.90;;;;;;;;;;5432714;26;20060;-57
2024/04/10 00:37:21;;;;;;;2.72;0.93;;;;;;;;;;5441336;26;20342;-57
2024/04/10 00:39:47;;;;;;;3.28;1.02;;;;;;;;;;5422995;26;20332;-57
2024/04/10 00:42:13;;;;;;;2.28;0.73;;;;;;;;;;5442075;26;20022;-57
2024/04/10 00:44:52;;;;;;;4.20;0.90;;;;;;;;;;5458381;26;20035;-58
2024/04/10 00:47:18;;;;;;;3.63;0.70;;;;;;;;;;5446646;26;20723;-57
2024/04/10 00:49:45;;;;;;;5.47;1.20;;;;;;;;;;5433926;26;20084;-58
2024/04/10 00:52:11;;;;;;;3.00;0.60;;;;;;;;;;5441672;26;20431;-57
2024/04/10 00:54:37;;;;;;;2.75;0.90;;;;;;;;;;5448970;26;20006;-57
2024/04/10 00:57:03;;;;;;;2.58;0.82;;;;;;;;;;5442111;26;20011;-57
2024/04/10 00:59:30;;;;;;;5.43;0.80;;;;;;;;;;5431625;26;20005;-57
2024/04/10 01:01:56;;;;;;;2.38;0.65;;;;;;;;;;5429258;26;20010;-58
2024/04/10 01:04:22;;;;;;;3.30;0.80;;;;;;;;;;5423543;26;19999;-58
2024/04/10 01:06:48;;;;;;;2.90;0.73;;;;;;;;;;5445347;26;19999;-58
2024/04/10 01:09:15;;;;;;;2.67;0.98;;;;;;;;;;5447951;26;20014;-58
2024/04/10 01:11:41;;;;;;;3.72;0.80;;;;;;;;;;5438419;26;20458;-58
2024/04/10 01:14:07;;;;;;;4.68;1.08;;;;;;;;;;5429913;26;19999;-57
2024/04/10 01:16:33;;;;;;;3.78;1.23;;;;;;;;;;5448419;26;19999;-58
2024/04/10 01:18:59;;;;;;;2.70;0.95;;;;;;;;;;5424050;26;19999;-57
2024/04/10 01:21:25;;;;;;;5.28;1.10;;;;;;;;;;5435182;26;20014;-57
2024/04/10 01:23:51;;;;;;;4.90;0.80;;;;;;;;;;5435523;26;20007;-57
2024/04/10 01:26:17;;;;;;;4.10;1.10;;;;;;;;;;5443548;26;20004;-58
2024/04/10 01:28:43;;;;;;;2.55;0.80;;;;;;;;;;5449912;26;20039;-58
2024/04/10 01:31:09;;;;;;;1.23;0.70;;;;;;;;;;5406731;26;20039;-58
2024/04/10 01:33:35;;;;;;;4.85;1.05;;;;;;;;;;5439455;26;20005;-58
2024/04/10 01:36:01;;;;;;;2.78;0.80;;;;;;;;;;5446246;26;20076;-58
2024/04/10 01:38:28;;;;;;;4.78;0.95;;;;;;;;;;5451995;26;20010;-58
2024/04/10 01:40:54;;;;;;;5.75;1.17;;;;;;;;;;5451853;26;20417;-58
2024/04/10 01:43:20;;;;;;;2.80;0.70;;;;;;;;;;5440780;26;20039;-58
2024/04/10 01:45:46;;;;;;;4.43;1.15;;;;;;;;;;5450453;26;19999;-57
2024/04/10 01:48:12;;;;;;;3.15;0.90;;;;;;;;;;5435056;26;19999;-58
2024/04/10 01:50:38;;;;;;;2.63;0.82;;;;;;;;;;5453211;26;20460;-58
2024/04/10 01:53:05;;;;;;;3.90;1.00;;;;;;;;;;5427459;26;20447;-58
2024/04/10 01:55:31;;;;;;;5.05;1.20;;;;;;;;;;5430013;26;20010;-58
2024/04/10 01:57:57;;;;;;;4.15;0.95;;;;;;;;;;5442707;26;19995;-58
2024/04/10 02:00:25;;;;;;;5.22;1.15;;;;;;;;;;5444754;26;19999;-58
2024/04/10 02:02:51;;;;;;;5.25;1.40;;;;;;;;;;5449450;26;20408;-58
2024/04/10 02:05:17;;;;;;;8.93;0.95;;;;;;;;;;5453860;26;20006;-58
2024/04/10 02:07:45;;;;;;;5.80;0.70;;;;;;;;;;5453060;26;20486;-58
2024/04/10 02:10:11;;;;;;;2.15;0.85;;;;;;;;;;5449997;26;20006;-61
2024/04/10 02:12:37;;;;;;;0.68;0.52;;;;;;;;;;5448414;26;20367;-61
2024/04/10 02:15:03;;;;;;;2.83;0.75;;;;;;;;;;5445450;26;20343;-61
2024/04/10 02:17:29;;;;;;;3.00;0.75;;;;;;;;;;5430261;26;20084;-61
2024/04/10 02:19:55;;;;;;;3.53;0.90;;;;;;;;;;5422440;26;20434;-61
2024/04/10 02:22:21;;;;;;;7.68;0.90;;;;;;;;;;5438932;26;19994;-61
2024/04/10 02:24:47;;;;;;;5.47;0.77;;;;;;;;;;5453631;26;20009;-61
2024/04/10 02:27:13;;;;;;;3.05;0.88;;;;;;;;;;5453575;26;20010;-60
2024/04/10 02:29:39;;;;;;;3.55;0.88;;;;;;;;;;5453572;26;20072;-60
2024/04/10 02:32:05;;;;;;;3.17;0.80;;;;;;;;;;5442328;26;20466;-61
2024/04/10 02:34:32;;;;;;;3.40;0.65;;;;;;;;;;5446597;26;23049;-60
2024/04/10 02:36:58;;;;;;;5.55;1.20;;;;;;;;;;5453414;26;20442;-60
2024/04/10 02:39:24;;;;;;;1.80;1.00;;;;;;;;;;5452404;26;20009;-60
2024/04/10 02:41:50;;;;;;;2.45;0.88;;;;;;;;;;5447995;26;20072;-61
2024/04/10 02:44:16;;;;;;;4.22;1.00;;;;;;;;;;5436450;26;20008;-60
2024/04/10 02:46:42;;;;;;;4.60;0.70;;;;;;;;;;5448732;26;20010;-61
2024/04/10 02:49:08;;;;;;;4.63;1.23;;;;;;;;;;5452073;26;20049;-61
2024/04/10 02:51:34;;;;;;;2.88;0.80;;;;;;;;;;5448112;26;20435;-61
2024/04/10 02:53:59;;;;;;;3.97;1.00;;;;;;;;;;5417698;26;20320;-61
2024/04/10 02:56:25;;;;;;;1.48;0.65;;;;;;;;;;5447863;26;19995;-61
2024/04/10 02:58:51;;;;;;;4.22;0.77;;;;;;;;;;5445859;26;20031;-61
2024/04/10 03:01:17;;;;;;;6.32;1.08;;;;;;;;;;5429611;26;20011;-61
2024/04/10 03:03:43;;;;;;;4.68;0.88;;;;;;;;;;5438182;26;19999;-61
2024/04/10 03:06:09;;;;;;;1.67;0.60;;;;;;;;;;5452944;26;20466;-60
2024/04/10 03:08:36;;;;;;;7.72;1.33;;;;;;;;;;5449139;26;20010;-61
2024/04/10 03:11:02;;;;;;;6.60;0.93;;;;;;;;;;5448518;26;20017;-61
2024/04/10 03:13:28;;;;;;;6.60;1.05;;;;;;;;;;5430142;26;20078;-60
2024/04/10 03:15:54;;;;;;;5.13;1.00;;;;;;;;;;5438925;26;20034;-61
2024/04/10 03:18:21;;;;;;;4.45;0.90;;;;;;;;;;5439155;26;20006;-57
2024/04/10 03:20:47;;;;;;;5.82;1.00;;;;;;;;;;5452962;26;20540;-58
2024/04/10 03:23:13;;;;;;;1.85;0.80;;;;;;;;;;5442333;26;20003;-58
2024/04/10 03:25:39;;;;;;;6.45;1.20;;;;;;;;;;5435782;26;20019;-57
2024/04/10 03:28:06;;;;;;;6.85;0.80;;;;;;;;;;5422152;26;20431;-58
2024/04/10 03:30:32;;;;;;;4.38;1.15;;;;;;;;;;5452764;26;19999;-57
2024/04/10 03:32:59;;;;;;;4.50;0.93;;;;;;;;;;5452375;26;20416;-58
2024/04/10 03:35:24;;;;;;;2.80;0.90;;;;;;;;;;5449415;26;20067;-57
2024/04/10 03:37:51;;;;;;;5.43;1.00;;;;;;;;;;5427474;26;20019;-57
2024/04/10 03:40:17;;;;;;;4.40;0.80;;;;;;;;;;5437637;26;19994;-56
2024/04/10 03:42:43;;;;;;;5.55;1.17;;;;;;;;;;5436876;26;20045;-58
2024/04/10 03:45:12;;;;;;;3.67;0.93;;;;;;;;;;5444049;26;20010;-58
2024/04/10 03:47:38;;;;;;;4.15;1.10;;;;;;;;;;5426656;26;20072;-57
2024/04/10 03:50:04;;;;;;;14.50;1.13;;;;;;;;;;5452459;26;19999;-57
2024/04/10 03:52:30;;;;;;;3.35;0.80;;;;;;;;;;5438610;26;20018;-57
2024/04/10 03:54:56;;;;;;;3.53;0.90;;;;;;;;;;5422895;26;20432;-57
2024/04/10 03:57:22;;;;;;;3.35;0.80;;;;;;;;;;5437723;26;20017;-58
2024/04/10 03:59:48;;;;;;;3.17;1.10;;;;;;;;;;5433086;26;20102;-58
2024/04/10 04:02:14;;;;;;;5.82;1.08;;;;;;;;;;5426019;26;20004;-57
2024/04/10 04:04:40;;;;;;;2.70;1.25;;;;;;;;;;5446354;26;20003;-57
2024/04/10 04:07:06;;;;;;;5.85;1.27;;;;;;;;;;5451222;26;20034;-57
2024/04/10 04:09:31;;;;;;;6.35;1.00;;;;;;;;;;5416058;26;20481;-57
2024/04/10 04:11:57;;;;;;;3.90;0.75;;;;;;;;;;5449343;26;20455;-57
2024/04/10 04:14:23;;;;;;;3.97;1.20;;;;;;;;;;5447201;26;20346;-57
2024/04/10 04:16:49;;;;;;;4.28;1.10;;;;;;;;;;5446594;26;19998;-57
2024/04/10 04:19:15;;;;;;;2.63;1.10;;;;;;;;;;5452275;26;20075;-57
2024/04/10 04:21:41;;;;;;;1.85;0.75;;;;;;;;;;5443409;26;20454;-57
2024/04/10 04:24:08;;;;;;;1.80;0.88;;;;;;;;;;5444336;26;20005;-58
2024/04/10 04:26:34;;;;;;;6.05;0.98;;;;;;;;;;5448914;26;20457;-57
2024/04/10 04:29:00;;;;;;;4.95;1.10;;;;;;;;;;5447278;26;20006;-58
2024/04/10 04:31:26;;;;;;;8.38;1.30;;;;;;;;;;5450058;26;20013;-58
2024/04/10 04:33:54;;;;;;;4.50;1.20;;;;;;;;;;5449773;26;20002;-57
2024/04/10 04:36:20;;;;;;;3.90;1.52;;;;;;;;;;5439542;26;20335;-58
2024/04/10 04:38:46;;;;;;;3.13;0.93;;;;;;;;;;5449357;26;20066;-61
2024/04/10 04:41:12;;;;;;;3.17;0.98;;;;;;;;;;5449113;26;20002;-58
2024/04/10 04:43:38;;;;;;;6.95;1.40;;;;;;;;;;5447392;26;20074;-58
2024/04/10 04:46:04;;;;;;;1.92;1.25;;;;;;;;;;5449061;26;19999;-58
2024/04/10 04:48:30;;;;;;;5.90;1.33;;;;;;;;;;5449888;26;19999;-58
2024/04/10 04:50:56;;;;;;;5.70;1.13;;;;;;;;;;5450092;26;20009;-57
2024/04/10 04:53:22;;;;;;;4.13;1.23;;;;;;;;;;5449090;26;19998;-57
2024/04/10 04:55:48;;;;;;;2.08;1.08;;;;;;;;;;5429843;26;20010;-58
2024/04/10 04:58:14;;;;;;;6.90;1.02;;;;;;;;;;5438208;26;20017;-58
2024/04/10 05:00:40;;;;;;;6.10;1.20;;;;;;;;;;5443759;26;20009;-58
2024/04/10 05:03:13;;;;;;;7.18;1.02;;;;;;;;;;5416362;26;20007;-58
2024/04/10 05:05:39;;;;;;;4.65;1.17;;;;;;;;;;5455743;26;20052;-58
2024/04/10 05:08:05;;;;;;;2.28;1.13;;;;;;;;;;5448688;26;20046;-58
2024/04/10 05:10:31;;;;;;;4.40;1.17;;;;;;;;;;5447575;26;20446;-57
2024/04/10 05:12:57;;;;;;;2.47;0.98;;;;;;;;;;5447230;26;20011;-58
2024/04/10 05:15:23;;;;;;;7.57;1.40;;;;;;;;;;5445203;26;20015;-58
2024/04/10 05:17:49;;;;;;;5.07;1.65;;;;;;;;;;5452655;26;20011;-58
2024/04/10 05:20:15;;;;;;;1.92;1.17;;;;;;;;;;5453166;26;20103;-58
2024/04/10 05:22:42;;;;;;;7.05;1.35;;;;;;;;;;5449746;26;19998;-58
2024/04/10 05:25:09;;;;;;;6.32;1.40;;;;;;;;;;5448148;26;20536;-58
2024/04/10 05:27:37;;;;;;;4.30;1.40;;;;;;;;;;5452061;26;19991;-58
2024/04/10 05:30:07;;;;;;;6.38;1.85;;;;;;;;;;5442665;26;20004;-58
2024/04/10 05:32:39;;;;;;;4.10;1.20;;;;;;;;;;5420612;26;20053;-57
2024/04/10 05:35:10;;;;;;;7.07;1.35;;;;;;;;;;5453310;26;20013;-58
2024/04/10 05:37:36;;;;;;;4.57;1.65;;;;;;;;;;5444072;26;20073;-58
2024/04/10 05:40:06;;;;;;;2.75;1.10;;;;;;;;;;5452583;26;20319;-57
2024/04/10 05:42:42;;;;;;;6.25;1.38;;;;;;;;;;5450016;26;19999;-58
2024/04/10 05:45:09;;;;;;;6.57;1.60;;;;;;;;;;5453042;26;20003;-58
2024/04/10 05:47:38;;;;;;;6.07;1.60;;;;;;;;;;5450886;26;20013;-58
2024/04/10 05:50:05;;;;;;;7.55;1.52;;;;;;;;;;5453008;26;20003;-57
2024/04/10 05:52:31;;;;;;;5.75;1.80;;;;;;;;;;5452721;26;19998;-58
2024/04/10 05:54:57;;;;;;;4.30;1.58;;;;;;;;;;5451911;26;20009;-58
2024/04/10 05:57:24;;;;;;;8.23;1.58;;;;;;;;;;5452950;26;20018;-58
2024/04/10 05:59:56;;;;;;;8.02;1.83;;;;;;;;;;5452982;26;20014;-58
2024/04/10 06:02:23;;;;;;;8.43;2.20;;;;;;;;;;5452183;26;20129;-58
2024/04/10 06:04:55;;;;;;;11.13;2.15;;;;;;;;;;5452795;26;20031;-58
2024/04/10 06:07:21;;;;;;;6.15;2.15;;;;;;;;;;5451946;26;19999;-58
2024/04/10 06:09:52;;;;;;;6.72;2.10;;;;;;;;;;5450409;26;20079;-58
2024/04/10 06:12:18;;;;;;;7.70;1.92;;;;;;;;;;5433584;26;20126;-58
2024/04/10 06:14:44;;;;;;;8.73;2.42;;;;;;;;;;5447803;26;20300;-58
2024/04/10 06:17:10;;;;;;;5.75;2.08;;;;;;;;;;5452683;26;19999;-57
2024/04/10 06:19:36;;;;;;;12.18;2.78;;;;;;;;;;5427889;26;20018;-57
2024/04/10 06:22:02;;;;;;;7.45;2.35;;;;;;;;;;5452561;26;19999;-58
2024/04/10 06:24:29;;;;;;;7.72;1.83;;;;;;;;;;5439736;26;20006;-58
2024/04/10 06:26:55;;;;;;;7.03;2.10;;;;;;;;;;5441431;26;20021;-57
2024/04/10 06:29:21;;;;;;;7.35;1.98;;;;;;;;;;5452400;26;20419;-57
2024/04/10 06:31:47;;;;;;;9.55;2.60;;;;;;;;;;5452344;26;20017;-58
2024/04/10 06:34:13;;;;;;;6.55;2.45;;;;;;;;;;5451925;26;20021;-58
2024/04/10 06:36:39;;;;;;;6.45;2.05;;;;;;;;;;5452591;26;20023;-58
2024/04/10 06:39:05;;;;;;;10.15;2.38;;;;;;;;;;5443025;26;20177;-58
2024/04/10 06:41:31;;;;;;;9.60;2.30;;;;;;;;;;5445064;26;20010;-58
2024/04/10 06:43:57;;;;;;;7.03;2.15;;;;;;;;;;5419549;26;20443;-58
2024/04/10 06:46:23;;;;;;;12.95;2.67;;;;;;;;;;5452268;26;20439;-57
2024/04/10 06:48:49;;;;;;;7.88;2.47;;;;;;;;;;5452580;26;20346;-57
2024/04/10 06:51:15;;;;;;;13.23;2.67;;;;;;;;;;5452333;26;20035;-57
2024/04/10 06:53:41;;;;;;;14.63;3.05;;;;;;;;;;5452105;26;20002;-57
2024/04/10 06:56:08;;;;;;;15.43;2.60;;;;;;;;;;5419763;26;19995;-58
2024/04/10 06:58:36;;;;;;;7.55;2.42;;;;;;;;;;5428513;26;19999;-56
2024/04/10 07:01:03;;;;;;;8.23;2.55;;;;;;;;;;5451912;26;20002;-57
2024/04/10 07:03:31;;;;;;;3.10;1.52;;;;;;;;;;5451953;26;19998;-57
2024/04/10 07:06:03;;;;;;;6.35;2.08;;;;;;;;;;5451987;26;20031;-56
2024/04/10 07:08:29;;;;;;;7.65;2.20;;;;;;;;;;5452215;26;20010;-56
2024/04/10 07:10:55;;;;;;;9.57;2.20;;;;;;;;;;5451066;26;19999;-57
2024/04/10 07:13:21;;;;;;;7.15;2.45;;;;;;;;;;5431581;26;20526;-57
2024/04/10 07:15:47;;;;;;;11.00;2.28;;;;;;;;;;5451927;26;20432;-57
2024/04/10 07:18:13;;;;;;;5.30;2.63;;;;;;;;;;5450149;26;20438;-56
2024/04/10 07:20:39;;;;;;;7.10;2.45;;;;;;;;;;5447818;26;20528;-56
2024/04/10 07:23:06;;;;;;;4.82;2.05;;;;;;;;;;5450970;26;20022;-56
2024/04/10 07:25:32;;;;;;;7.30;2.60;;;;;;;;;;5419344;26;19995;-57
2024/04/10 07:27:58;;;;;;;5.13;2.22;;;;;;;;;;5451766;26;20011;-57
2024/04/10 07:30:24;;;;;;;6.53;2.58;;;;;;;;;;5451825;26;20071;-59
2024/04/10 07:32:50;;;;;;;6.18;2.42;;;;;;;;;;5451566;26;20335;-56
2024/04/10 07:35:16;;;;;;;9.23;2.70;;;;;;;;;;5451273;26;20068;-57
2024/04/10 07:37:43;;;;;;;8.65;2.78;;;;;;;;;;5444708;26;20878;-56
2024/04/10 07:40:15;;;;;;;10.52;2.80;;;;;;;;;;5443310;26;20009;-56
2024/04/10 07:42:41;;;;;;;6.53;2.63;;;;;;;;;;5419657;26;20439;-56
2024/04/10 07:45:07;;;;;;;11.73;2.72;;;;;;;;;;5451327;26;20268;-57
2024/04/10 07:47:33;;;;;;;7.97;3.10;;;;;;;;;;5451695;26;19999;-57
2024/04/10 07:49:59;;;;;;;10.70;2.67;;;;;;;;;;5451627;26;20009;-57
2024/04/10 07:52:25;;;;;;;14.27;2.95;;;;;;;;;;5451123;26;20010;-57
2024/04/10 07:54:51;;;;;;;9.15;3.08;;;;;;;;;;5450448;26;20021;-58
2024/04/10 07:57:17;;;;;;;9.05;2.80;;;;;;;;;;5451530;26;20009;-56
2024/04/10 07:59:43;;;;;;;7.30;2.40;;;;;;;;;;5451544;26;20007;-57
2024/04/10 08:02:09;;;;;;;13.93;2.92;;;;;;;;;;5450951;26;19998;-58
2024/04/10 08:04:35;;;;;;;9.82;2.95;;;;;;;;;;5451078;26;19991;-57
2024/04/10 08:07:01;;;;;;;7.07;2.20;;;;;;;;;;5451321;26;20006;-57
2024/04/10 08:09:27;;;;;;;11.07;2.83;;;;;;;;;;5451275;26;20034;-56
2024/04/10 08:11:54;;;;;;;7.63;2.92;;;;;;;;;;5450322;26;20003;-58
2024/04/10 08:14:21;;;;;;;7.97;2.50;;;;;;;;;;5450570;26;19999;-57
2024/04/10 08:16:46;;;;;;;9.75;3.17;;;;;;;;;;5451035;26;20523;-57
2024/04/10 08:19:12;;;;;;;12.43;2.75;;;;;;;;;;5451142;26;20010;-57
2024/04/10 08:21:39;;;;;;;9.40;2.65;;;;;;;;;;5451116;26;20445;-57
2024/04/10 08:24:06;;;;;;;6.65;2.65;;;;;;;;;;5450263;26;20003;-57
2024/04/10 08:26:33;;;;;;;10.50;2.47;;;;;;;;;;5446969;26;19998;-57
2024/04/10 08:28:59;;;;;;;5.05;2.65;;;;;;;;;;5433186;26;20018;-58
2024/04/10 08:31:28;;;;;;;6.82;1.85;;;;;;;;;;5450966;26;20018;-57
2024/04/10 08:33:54;;;;;;;4.28;1.90;;;;;;;;;;5450350;26;20014;-58
2024/04/10 08:36:21;;;;;;;4.72;2.05;;;;;;;;;;5450743;26;20037;-58
2024/04/10 08:38:47;;;;;;;6.47;1.83;;;;;;;;;;5450801;26;20093;-58
2024/04/10 08:41:13;;;;;;;7.35;2.45;;;;;;;;;;5449721;26;20023;-57
2024/04/10 08:43:43;;;;;;;11.02;2.10;;;;;;;;;;5450131;26;20014;-58
2024/04/10 08:46:09;;;;;;;6.25;1.80;;;;;;;;;;5451050;26;20014;-58
2024/04/10 08:48:37;;;;;;;9.30;1.80;;;;;;;;;;5449303;26;20043;-57
2024/04/10 08:51:03;;;;;;;3.70;1.30;;;;;;;;;;5450471;26;20007;-59
2024/04/10 08:53:30;;;;;;;7.53;1.38;;;;;;;;;;5450058;26;20660;-57
2024/04/10 08:55:56;;;;;;;7.45;1.60;;;;;;;;;;5449781;26;20013;-58
2024/04/10 08:58:22;;;;;;;13.85;1.92;;;;;;;;;;5450170;26;20011;-57
2024/04/10 09:00:48;;;;;;;6.30;1.50;;;;;;;;;;5450464;26;20050;-57
2024/04/10 09:03:14;;;;;;;5.50;1.52;;;;;;;;;;5449709;26;20113;-58
2024/04/10 09:05:41;;;;;;;5.03;1.52;;;;;;;;;;5450159;26;20010;-57
2024/04/10 09:08:08;;;;;;;6.03;1.75;;;;;;;;;;5450300;26;20014;-60
2024/04/10 09:10:34;;;;;;;5.78;1.25;;;;;;;;;;5450463;26;20472;-59
2024/04/10 09:13:08;;;;;;;4.20;1.35;;;;;;;;;;5448270;26;20007;-59
2024/04/10 09:15:34;;;;;;;5.20;1.52;;;;;;;;;;5450151;26;20014;-59
2024/04/10 09:18:00;;;;;;;6.97;1.23;;;;;;;;;;5449945;26;20527;-59
2024/04/10 09:20:26;;;;;;;4.03;1.05;;;;;;;;;;5450175;26;19999;-59
2024/04/10 09:23:09;;;;;;;4.65;1.42;;;;;;;;;;5448972;26;20459;-59
2024/04/10 09:25:35;;;;;;;4.93;1.20;;;;;;;;;;5449618;26;20003;-60
2024/04/10 09:28:03;;;;;;;8.07;1.70;;;;;;;;;;5448257;26;20720;-60
2024/04/10 09:30:30;;;;;;;3.92;1.13;;;;;;;;;;5449832;26;20006;-60
2024/04/10 09:32:57;;;;;;;9.15;1.55;;;;;;;;;;5449088;26;19994;-60
2024/04/10 09:35:25;;;;;;;3.83;1.33;;;;;;;;;;5428336;26;20003;-60
2024/04/10 09:37:52;;;;;;;5.78;1.20;;;;;;;;;;5449794;26;20002;-60
2024/04/10 09:40:22;;;;;;;3.03;1.10;;;;;;;;;;5449556;26;20450;-59
2024/04/10 09:42:49;;;;;;;6.15;1.50;;;;;;;;;;5448524;26;20070;-60
2024/04/10 09:45:21;;;;;;;4.57;1.25;;;;;;;;;;5449108;26;20071;-60
2024/04/10 09:47:47;;;;;;;4.55;1.10;;;;;;;;;;5449666;26;20364;-60
2024/04/10 09:50:16;;;;;;;2.95;1.00;;;;;;;;;;5449374;26;19999;-59
2024/04/10 09:52:43;;;;;;;4.15;0.70;;;;;;;;;;5449098;26;20010;-59
2024/04/10 09:55:11;;;;;;;4.93;1.00;;;;;;;;;;5424086;26;20002;-60
2024/04/10 09:57:37;;;;;;;5.07;1.08;;;;;;;;;;5448556;26;20010;-59
2024/04/10 10:00:04;;;;;;;3.30;1.00;;;;;;;;;;5452245;26;20515;-60
2024/04/10 10:02:30;;;;;;;3.88;1.20;;;;;;;;;;5452577;26;20331;-59
2024/04/10 10:04:56;;;;;;;3.38;1.35;;;;;;;;;;5451496;26;20006;-58
2024/04/10 10:07:25;;;;;;;4.72;1.02;;;;;;;;;;5452795;26;20062;-60
2024/04/10 10:09:52;;;;;;;4.72;1.45;;;;;;;;;;5452858;26;20079;-59
2024/04/10 10:12:25;;;;;;;4.60;1.13;;;;;;;;;;5451066;26;20009;-60
2024/04/10 10:14:51;;;;;;;;;;;;;;;;;;5431689;26;20361;-60
2024/04/10 10:17:26;;;;;;;11.93;1.60;;;;;;;;;;5452589;26;19925;-59
2024/04/10 10:19:52;;;;;;;4.28;0.80;;;;;;;;;;5452869;26;20002;-59
2024/04/10 10:22:19;;;;;;;5.20;0.70;;;;;;;;;;5452071;26;19999;-60
2024/04/10 10:24:45;;;;;;;4.35;0.60;;;;;;;;;;5441906;26;20003;-60
2024/04/10 10:27:10;;;;;;;4.47;0.63;;;;;;;;;;5443356;26;19995;-59
2024/04/10 10:29:37;;;;;;;6.60;1.00;;;;;;;;;;5452564;26;19995;-59
2024/04/10 10:32:07;;;;;;;3.00;0.73;;;;;;;;;;5452394;26;20367;-59
2024/04/10 10:34:33;;;;;;;1.80;0.77;;;;;;;;;;5452523;26;20412;-62
2024/04/10 10:37:06;;;;;;;3.67;0.50;;;;;;;;;;5452430;26;20110;-60
2024/04/10 10:39:41;;;;;;;3.87;0.70;;;;;;;;;;5452085;26;19998;-59
2024/04/10 10:42:07;;;;;;;1.77;0.50;;;;;;;;;;5451737;26;20609;-59
2024/04/10 10:44:33;;;;;;;3.92;0.73;;;;;;;;;;5446624;26;19995;-60
2024/04/10 10:46:59;;;;;;;2.72;0.70;;;;;;;;;;5452016;26;19998;-60
2024/04/10 10:49:26;;;;;;;1.77;0.40;;;;;;;;;;5452375;26;20044;-58
2024/04/10 10:51:55;;;;;;;3.47;0.70;;;;;;;;;;5451984;26;20334;-60
2024/04/10 10:54:22;;;;;;;3.63;0.50;;;;;;;;;;5452145;26;20003;-60
2024/04/10 10:56:48;;;;;;;2.00;0.52;;;;;;;;;;5452211;26;20003;-60
2024/04/10 10:59:14;;;;;;;3.45;0.80;;;;;;;;;;5447244;26;20023;-60
2024/04/10 11:01:40;;;;;;;3.75;0.70;;;;;;;;;;5452020;26;19999;-60
2024/04/10 11:04:10;;;;;;;4.25;0.82;;;;;;;;;;5450428;26;20002;-59
2024/04/10 11:06:36;;;;;;;8.13;0.70;;;;;;;;;;5451769;26;20071;-58
2024/04/10 11:09:10;;;;;;;6.20;0.70;;;;;;;;;;5452157;26;20009;-59
2024/04/10 11:11:39;;;;;;;7.38;1.08;;;;;;;;;;5451145;26;20332;-59
2024/04/10 11:14:07;;;;;;;3.00;1.17;;;;;;;;;;5450735;26;19999;-60
2024/04/10 11:16:33;;;;;;;0.98;0.47;;;;;;;;;;5452216;26;20009;-60
2024/04/10 11:19:00;;;;;;;2.17;0.50;;;;;;;;;;5450374;26;20026;-60
2024/04/10 11:21:26;;;;;;;1.88;0.30;;;;;;;;;;5451334;26;20347;-60
2024/04/10 11:23:52;;;;;;;2.75;0.98;;;;;;;;;;5451148;26;20007;-60
2024/04/10 11:26:19;;;;;;;0.98;0.25;;;;;;;;;;5452015;26;19998;-60
2024/04/10 11:28:46;;;;;;;1.20;0.25;;;;;;;;;;5448565;26;20013;-58
2024/04/10 11:31:12;;;;;;;1.80;0.50;;;;;;;;;;5438930;26;20006;-58
2024/04/10 11:33:38;;;;;;;1.23;0.50;;;;;;;;;;5450988;26;20525;-57
2024/04/10 11:36:04;;;;;;;0.73;0.43;;;;;;;;;;5441026;26;20033;-58
2024/04/10 11:38:30;;;;;;;2.75;0.70;;;;;;;;;;5451551;26;20013;-58
2024/04/10 11:40:56;;;;;;;0.95;0.50;;;;;;;;;;5447559;26;19995;-58
2024/04/10 11:43:22;;;;;;;1.55;0.60;;;;;;;;;;5450274;26;20388;-58
2024/04/10 11:45:49;;;;;;;2.05;0.40;;;;;;;;;;5451698;26;20027;-58
2024/04/10 11:48:15;;;;;;;1.65;0.40;;;;;;;;;;5450999;26;20006;-58
2024/04/10 11:50:41;;;;;;;1.10;0.30;;;;;;;;;;5451860;26;20511;-58
2024/04/10 11:53:07;;;;;;;1.63;0.30;;;;;;;;;;5450997;26;20012;-58
2024/04/10 11:55:33;;;;;;;0.85;0.28;;;;;;;;;;5450659;26;20010;-58
2024/04/10 11:57:59;;;;;;;2.58;0.63;;;;;;;;;;5427184;26;20003;-58
2024/04/10 12:00:25;;;;;;;2.60;0.50;;;;;;;;;;5433232;26;20010;-58
2024/04/10 12:02:51;;;;;;;1.35;0.30;;;;;;;;;;5450655;26;20002;-58
2024/04/10 12:05:17;;;;;;;2.30;0.50;;;;;;;;;;5448506;26;20003;-59
2024/04/10 12:07:43;;;;;;;2.05;0.68;;;;;;;;;;5451570;26;20543;-58
2024/04/10 12:10:09;;;;;;;1.33;0.40;;;;;;;;;;5451330;26;20002;-59
2024/04/10 12:12:35;;;;;;;0.82;0.40;;;;;;;;;;5450600;26;20015;-58
2024/04/10 12:15:01;;;;;;;2.90;0.32;;;;;;;;;;5449064;26;20071;-58
2024/04/10 12:17:29;;;;;;;0.52;0.30;;;;;;;;;;5450251;26;19999;-58
2024/04/10 12:19:55;;;;;;;0.93;0.28;;;;;;;;;;5435857;26;20020;-58
2024/04/10 12:22:21;;;;;;;1.80;0.45;;;;;;;;;;5441141;26;19999;-58
2024/04/10 12:24:47;;;;;;;5.50;0.90;;;;;;;;;;5440786;26;20076;-59
2024/04/10 12:27:13;;;;;;;4.78;0.50;;;;;;;;;;5450497;26;20372;-59
2024/04/10 12:29:39;;;;;;;2.78;0.43;;;;;;;;;;5444277;26;19996;-59
2024/04/10 12:32:05;;;;;;;3.72;0.57;;;;;;;;;;5449824;26;19994;-59
2024/04/10 12:34:31;;;;;;;2.92;0.47;;;;;;;;;;5446020;26;20343;-58
2024/04/10 12:39:42;;;;;;;1.70;0.50;;;;;;;;;;5435542;26;20013;-61
2024/04/10 12:42:08;;;;;;;1.75;0.50;;;;;;;;;;5448131;26;20002;-61
2024/04/10 12:44:37;;;;;;;2.90;0.35;;;;;;;;;;5446987;26;19995;-61
2024/04/10 12:47:03;;;;;;;2.10;0.32;;;;;;;;;;5430301;26;20006;-61
2024/04/10 12:49:31;;;;;;;2.75;0.50;;;;;;;;;;5440089;26;20436;-60
2024/04/10 12:51:57;;;;;;;3.30;0.52;;;;;;;;;;5449394;26;20007;-59
2024/04/10 12:54:23;;;;;;;4.80;0.70;;;;;;;;;;5428181;26;20027;-60
2024/04/10 12:56:50;;;;;;;5.63;0.95;;;;;;;;;;5449443;26;20052;-60
2024/04/10 12:59:16;;;;;;;3.97;0.50;;;;;;;;;;5445092;26;20098;-61
2024/04/10 13:01:42;;;;;;;1.23;0.47;;;;;;;;;;5446616;26;20005;-61
2024/04/10 13:04:08;;;;;;;2.33;0.60;;;;;;;;;;5446493;26;20002;-61
2024/04/10 13:06:34;;;;;;;2.92;0.70;;;;;;;;;;5441107;26;20015;-61
2024/04/10 13:09:01;;;;;;;2.00;0.63;;;;;;;;;;5448031;26;20030;-61
2024/04/10 13:11:27;;;;;;;1.08;0.43;;;;;;;;;;5448830;26;20027;-59
2024/04/10 13:13:53;;;;;;;1.77;0.50;;;;;;;;;;5448285;26;20049;-61
2024/04/10 13:16:20;;;;;;;2.20;0.30;;;;;;;;;;5435483;26;19999;-61
2024/04/10 13:18:46;;;;;;;1.65;0.35;;;;;;;;;;5435849;26;20368;-61
2024/04/10 13:21:12;;;;;;;2.65;0.63;;;;;;;;;;5437180;26;20003;-60
2024/04/10 13:23:40;;;;;;;5.35;0.70;;;;;;;;;;5440985;26;20015;-60
2024/04/10 13:26:11;;;;;;;3.00;0.43;;;;;;;;;;5440712;26;20011;-61
2024/04/10 13:28:37;;;;;;;2.03;0.65;;;;;;;;;;5438688;26;20011;-59
2024/04/10 13:31:05;;;;;;;1.98;0.30;;;;;;;;;;5447453;26;19995;-61
2024/04/10 13:33:32;;;;;;;2.85;0.32;;;;;;;;;;5448324;26;20045;-60
2024/04/10 13:36:10;;;;;;;1.00;0.35;;;;;;;;;;5448760;26;20066;-61
2024/04/10 13:38:36;;;;;;;1.20;0.60;;;;;;;;;;5447962;26;20071;-58
2024/04/10 13:41:03;;;;;;;1.67;0.32;;;;;;;;;;5452984;26;20003;-60
2024/04/10 13:43:29;;;;;;;1.95;0.40;;;;;;;;;;5452456;26;20003;-60
2024/04/10 13:45:55;;;;;;;1.08;0.60;;;;;;;;;;5439435;26;20520;-61
2024/04/10 13:48:21;;;;;;;0.77;0.40;;;;;;;;;;5446822;26;19998;-59
2024/04/10 13:50:47;;;;;;;1.75;0.30;;;;;;;;;;5443974;26;20328;-59
2024/04/10 13:53:13;;;;;;;3.47;0.38;;;;;;;;;;5435754;26;20000;-59
2024/04/10 13:55:39;;;;;;;2.50;0.40;;;;;;;;;;5443967;26;19995;-58
2024/04/10 13:58:06;;;;;;;1.90;0.40;;;;;;;;;;5436051;26;20011;-59
2024/04/10 14:00:32;;;;;;;1.23;0.28;;;;;;;;;;5440121;26;20071;-59
2024/04/10 14:03:00;;;;;;;2.38;0.50;;;;;;;;;;5442189;26;20459;-59
2024/04/10 14:05:26;;;;;;;0.82;0.20;;;;;;;;;;5444759;26;20013;-58
2024/04/10 14:07:52;;;;;;;5.00;0.50;;;;;;;;;;5437614;26;19999;-59
2024/04/10 14:10:18;;;;;;;1.13;0.30;;;;;;;;;;5443023;26;20008;-59
2024/04/10 14:12:44;;;;;;;4.90;0.40;;;;;;;;;;5451021;26;20011;-58
2024/04/10 14:15:10;;;;;;;2.00;0.28;;;;;;;;;;5442822;26;20744;-58
2024/04/10 14:17:36;;;;;;;0.65;0.28;;;;;;;;;;5451265;26;20100;-59
2024/04/10 14:20:05;;;;;;;0.95;0.30;;;;;;;;;;5434778;26;20013;-58
2024/04/10 14:22:31;;;;;;;2.03;0.47;;;;;;;;;;5447630;26;20075;-58
2024/04/10 14:24:57;;;;;;;2.47;0.60;;;;;;;;;;5440460;26;20007;-58
2024/04/10 14:27:23;;;;;;;3.10;0.43;;;;;;;;;;5444700;26;20527;-58
2024/04/10 14:29:52;;;;;;;3.00;0.47;;;;;;;;;;5446652;26;20010;-58
2024/04/10 14:32:18;;;;;;;1.95;0.40;;;;;;;;;;5442481;26;20450;-58
2024/04/10 14:34:45;;;;;;;3.13;0.50;;;;;;;;;;5434749;26;19999;-58
2024/04/10 14:37:11;;;;;;;0.50;0.10;;;;;;;;;;5441892;26;20060;-58
2024/04/10 14:39:37;;;;;;;2.75;0.40;;;;;;;;;;5452268;26;20023;-58
2024/04/10 14:42:03;;;;;;;3.42;0.22;;;;;;;;;;5448203;26;20003;-57